Darstellungsparameter: Aktuell verwendete Einstellungen:
Skalierung der Graphiken ... ?
xyx+y,   Skalierungsfaktor:      Skalierung: Modus: x, Faktor: 1
Darstellungszeitraum ... ?
Vom - - bis: - -   Zeitraum: 27.09.2010 - 01.10.2010
Min/Max/Avg-Anzeige ... ?
Zeige MMA aktuell
Zeige MMA Monat
Zeige MMA alles
Zeige --A aktuell
Zeige --A Monat
Zeige --A alles
Keine MMA-Anzeige
MMA:
Minimum Maximum Average (ber die Originaldaten)
MMA-Basis: 27.09.2010 - 01.10.2010
Quicknavigation für Darstellung... ?
Tage:      1T, 2T, 3T, 5T -1T -2T -3T -5T +1T +2T +3T +5T
Wochen: 1W, 2W, 3W -1W -2W -3W +1W +2W +3W
Monate: 1M, 3M, 6M -1M -3M -6M +1M +3M +6M
Jahre:    1J, 3J, 5J, 10J -1J -3J -5J -10J +1J +3J +5J +10J
Nutze für die Darstellung ... ?
Originaldaten oder Mittelwerte auf ...
Stundenbasis Tagesbasis Wochenbasis
Monatsbasis Jahresbasis      Datenbasis: Original-Daten
Darstellen als:
Statistik (Auto) Statistik J:M      Darstellung:
Zur Graphik,    zurück zur Übersicht aller Sensoren.
 
Tabellarische Datenbersicht: ?
 
Sensor: Nr:Datum:Temp:Abs-Feuchte:Windchill:Wind:
Aussen-T/F 1 27-09-2010 00:11:04 8.5 C 7.17 g/m*3 8.5 C 0 km/h
2 27-09-2010 00:23:04 8.2 C 7.03 g/m*3 8.2 C 0 km/h
3 27-09-2010 00:35:04 8.1 C 6.99 g/m*3 8.1 C 0 km/h
4 27-09-2010 00:47:04 7.9 C 6.98 g/m*3 7.9 C 0 km/h
5 27-09-2010 00:59:04 7.9 C 7.15 g/m*3 7.9 C 0 km/h
6 27-09-2010 01:11:04 7.8 C 7.18 g/m*3 7.8 C 0 km/h
7 27-09-2010 01:23:04 7.6 C 7.09 g/m*3 7.6 C 0 km/h
8 27-09-2010 01:35:04 7.5 C 7.04 g/m*3 7.5 C 0 km/h
9 27-09-2010 01:47:04 7.3 C 6.95 g/m*3 7.3 C 0 km/h
10 27-09-2010 01:59:04 7.1 C 6.94 g/m*3 7.1 C 0 km/h
11 27-09-2010 02:11:04 7 C 6.9 g/m*3 7 C 0 km/h
12 27-09-2010 02:23:04 7 C 6.9 g/m*3 7 C 0 km/h
13 27-09-2010 02:35:05 6.8 C 6.81 g/m*3 6.8 C 0 km/h
14 27-09-2010 02:47:05 6.7 C 6.84 g/m*3 6.7 C 0 km/h
15 27-09-2010 02:59:05 6.7 C 6.84 g/m*3 6.7 C 0 km/h
16 27-09-2010 03:11:05 6.5 C 6.75 g/m*3 6.5 C 0 km/h
17 27-09-2010 03:23:05 6.7 C 6.84 g/m*3 6.7 C 0 km/h
18 27-09-2010 03:35:05 6.4 C 6.71 g/m*3 6.4 C 0 km/h
19 27-09-2010 03:47:05 6.3 C 6.66 g/m*3 6.3 C 0 km/h
20 27-09-2010 03:59:05 6.4 C 6.78 g/m*3 6.4 C 0 km/h
21 27-09-2010 04:11:05 6.5 C 6.9 g/m*3 6.5 C 0 km/h
22 27-09-2010 04:23:05 6.4 C 6.85 g/m*3 6.4 C 0 km/h
23 27-09-2010 04:35:05 6.3 C 6.81 g/m*3 6.3 C 0 km/h
24 27-09-2010 04:47:05 6.1 C 6.72 g/m*3 6.1 C 0 km/h
25 27-09-2010 04:59:05 5.9 C 6.71 g/m*3 5.9 C 0 km/h
Sensor: Nr:Datum:Temp:Abs-Feuchte:Windchill:Wind:
Aussen-T/F 26 27-09-2010 05:11:05 5.9 C 6.71 g/m*3 5.9 C 0 km/h
27 27-09-2010 05:23:05 6.1 C 6.72 g/m*3 6.1 C 0 km/h
28 27-09-2010 05:35:05 6.3 C 6.81 g/m*3 6.3 C 0 km/h
29 27-09-2010 05:47:05 6.4 C 6.93 g/m*3 6.4 C 0 km/h
30 27-09-2010 05:59:05 6.5 C 6.97 g/m*3 6.5 C 0 km/h
31 27-09-2010 06:11:05 6.5 C 6.97 g/m*3 6.5 C 0 km/h
32 27-09-2010 06:23:05 6.4 C 6.93 g/m*3 6.4 C 0 km/h
33 27-09-2010 06:35:05 6.2 C 6.84 g/m*3 6.2 C 0 km/h
34 27-09-2010 06:47:06 6.2 C 6.84 g/m*3 6.2 C 0 km/h
35 27-09-2010 06:59:06 6.3 C 6.88 g/m*3 6.3 C 0 km/h
36 27-09-2010 07:11:04 6.3 C 6.88 g/m*3 6.3 C 0 km/h
37 27-09-2010 07:23:04 6.6 C 7.02 g/m*3 6.6 C 0 km/h
38 27-09-2010 07:35:04 6.7 C 7.14 g/m*3 6.7 C 0 km/h
39 27-09-2010 07:47:02 6.9 C 7.24 g/m*3 6.9 C 0 km/h
40 27-09-2010 07:59:02 7.2 C 7.38 g/m*3 7.2 C 0 km/h
41 27-09-2010 08:11:02 7.5 C 7.52 g/m*3 7.5 C 0 km/h
42 27-09-2010 08:23:02 7.5 C 7.52 g/m*3 7.5 C 0 km/h
43 27-09-2010 08:35:02 7.6 C 7.57 g/m*3 7.6 C 0 km/h
44 27-09-2010 08:47:02 7.8 C 7.67 g/m*3 7.8 C 0 km/h
45 27-09-2010 08:59:02 8.1 C 7.74 g/m*3 8.1 C 0 km/h
46 27-09-2010 09:11:02 8.5 C 7.94 g/m*3 8.5 C 0 km/h
47 27-09-2010 09:23:02 8.8 C 8.09 g/m*3 8.8 C 0 km/h
48 27-09-2010 09:35:02 9.2 C 8.22 g/m*3 9.2 C 0 km/h
49 27-09-2010 09:47:01 9.6 C 8.34 g/m*3 9.6 C 0 km/h
50 27-09-2010 09:59:01 10.1 C 8.42 g/m*3 10.1 C 0 km/h
Sensor: Nr:Datum:Temp:Abs-Feuchte:Windchill:Wind:
Aussen-T/F 51 27-09-2010 10:11:02 10.4 C 8.29 g/m*3 10.4 C 0 km/h
52 27-09-2010 10:23:01 10.4 C 7.9 g/m*3 10.4 C 0 km/h
53 27-09-2010 10:35:02 10.8 C 7.51 g/m*3 10.8 C 0 km/h
54 27-09-2010 10:47:01 11 C 7.11 g/m*3 11 C 0 km/h
55 27-09-2010 10:59:01 11.2 C 6.99 g/m*3 11.2 C 0 km/h
56 27-09-2010 11:11:02 11.7 C 7.01 g/m*3 11.7 C 0 km/h
57 27-09-2010 11:23:01 11.8 C 6.74 g/m*3 11.8 C 0 km/h
58 27-09-2010 11:35:02 12.2 C 6.8 g/m*3 12.2 C 0 km/h
59 27-09-2010 11:47:01 12 C 6.61 g/m*3 12 C 0 km/h
60 27-09-2010 11:59:01 12.2 C 6.8 g/m*3 12.2 C 0 km/h
61 27-09-2010 12:11:02 12.4 C 6.77 g/m*3 12.4 C 0 km/h
62 27-09-2010 12:23:01 12.8 C 6.94 g/m*3 12.8 C 0 km/h
63 27-09-2010 12:35:02 12.8 C 6.83 g/m*3 12.8 C 0 km/h
64 27-09-2010 12:47:01 13 C 6.8 g/m*3 13 C 0 km/h
65 27-09-2010 12:59:01 12.9 C 6.76 g/m*3 12.9 C 0 km/h
66 27-09-2010 13:11:02 13.1 C 6.73 g/m*3 13.1 C 0 km/h
67 27-09-2010 13:23:02 13.4 C 6.97 g/m*3 13.4 C 0 km/h
68 27-09-2010 13:35:01 13.6 C 6.71 g/m*3 13.6 C 0 km/h
69 27-09-2010 13:47:02 13.6 C 6.71 g/m*3 13.6 C 0 km/h
70 27-09-2010 13:59:02 13.7 C 6.51 g/m*3 13.7 C 0 km/h
71 27-09-2010 14:11:01 13.4 C 6.51 g/m*3 13.4 C 0 km/h
72 27-09-2010 14:23:02 13.3 C 6.7 g/m*3 13.3 C 0 km/h
73 27-09-2010 14:35:01 13.4 C 6.74 g/m*3 13.4 C 0 km/h
74 27-09-2010 14:47:03 13.2 C 6.77 g/m*3 13.2 C 0 km/h
75 27-09-2010 14:59:03 13 C 6.58 g/m*3 13 C 0 km/h
Sensor: Nr:Datum:Temp:Abs-Feuchte:Windchill:Wind:
Aussen-T/F 76 27-09-2010 15:11:02 13.4 C 6.74 g/m*3 13.4 C 0 km/h
77 27-09-2010 15:23:02 13.6 C 6.59 g/m*3 13.6 C 0 km/h
78 27-09-2010 15:35:02 13.6 C 6.47 g/m*3 13.6 C 0 km/h
79 27-09-2010 15:47:02 13.2 C 6.66 g/m*3 13.2 C 0 km/h
80 27-09-2010 15:59:02 13.2 C 6.77 g/m*3 13.2 C 0 km/h
81 27-09-2010 16:11:01 13.4 C 6.97 g/m*3 13.4 C 0 km/h
82 27-09-2010 16:23:02 13.4 C 7.44 g/m*3 13.4 C 0 km/h
83 27-09-2010 16:35:02 13.4 C 7.44 g/m*3 13.4 C 0 km/h
84 27-09-2010 16:47:01 13.3 C 7.05 g/m*3 13.3 C 0 km/h
85 27-09-2010 16:59:01 13.4 C 7.09 g/m*3 13.4 C 0 km/h
86 27-09-2010 17:11:01 13.2 C 7.58 g/m*3 13.2 C 0 km/h
87 27-09-2010 17:23:01 13 C 7.6 g/m*3 13 C 0 km/h
88 27-09-2010 17:35:02 12.8 C 7.73 g/m*3 12.8 C 0 km/h
89 27-09-2010 17:47:02 12.8 C 7.84 g/m*3 12.8 C 0 km/h
90 27-09-2010 17:59:02 12.7 C 7.68 g/m*3 12.7 C 0 km/h
91 27-09-2010 18:11:02 12.5 C 7.59 g/m*3 12.5 C 0 km/h
92 27-09-2010 18:23:01 12.3 C 7.71 g/m*3 12.3 C 0 km/h
93 27-09-2010 18:35:02 11.9 C 7.73 g/m*3 11.9 C 0 km/h
94 27-09-2010 18:47:02 11.7 C 7.74 g/m*3 11.7 C 0 km/h
95 27-09-2010 18:59:02 11.3 C 7.85 g/m*3 11.3 C 0 km/h
96 27-09-2010 19:11:02 10.8 C 8.01 g/m*3 10.8 C 0 km/h
97 27-09-2010 19:23:02 10.7 C 8.15 g/m*3 10.7 C 0 km/h
98 27-09-2010 19:35:02 10.5 C 8.15 g/m*3 10.5 C 0 km/h
99 27-09-2010 19:47:02 10.5 C 8.15 g/m*3 10.5 C 0 km/h
100 27-09-2010 19:59:02 10.4 C 8.19 g/m*3 10.4 C 0 km/h
Sensor: Nr:Datum:Temp:Abs-Feuchte:Windchill:Wind:
Aussen-T/F 101 27-09-2010 20:11:02 10.3 C 8.24 g/m*3 10.3 C 0 km/h
102 27-09-2010 20:23:02 10.3 C 8.33 g/m*3 10.3 C 0 km/h
103 27-09-2010 20:35:02 10.3 C 8.43 g/m*3 10.3 C 0 km/h
104 27-09-2010 20:47:01 10.3 C 8.43 g/m*3 10.3 C 0 km/h
105 27-09-2010 20:59:01 10.3 C 8.52 g/m*3 10.3 C 0 km/h
106 27-09-2010 21:11:02 10.4 C 8.58 g/m*3 10.4 C 0 km/h
107 27-09-2010 21:23:01 10.2 C 8.47 g/m*3 10.2 C 0 km/h
108 27-09-2010 21:35:02 10.3 C 8.52 g/m*3 10.3 C 0 km/h
109 27-09-2010 21:47:02 10.4 C 8.58 g/m*3 10.4 C 0 km/h
110 27-09-2010 21:59:03 10.4 C 8.58 g/m*3 10.4 C 0 km/h
111 27-09-2010 22:11:02 10.4 C 8.58 g/m*3 10.4 C 0 km/h
112 27-09-2010 22:24:10 10.4 C 8.67 g/m*3 10.4 C 0 km/h
113 27-09-2010 22:36:10 10.2 C 8.56 g/m*3 10.2 C 0 km/h
114 27-09-2010 22:48:10 10.2 C 8.56 g/m*3 10.2 C 0 km/h
115 27-09-2010 23:00:10 10.2 C 8.56 g/m*3 10.2 C 0 km/h
116 27-09-2010 23:12:10 10.2 C 8.66 g/m*3 10.2 C 0 km/h
117 27-09-2010 23:24:10 10.2 C 8.66 g/m*3 10.2 C 0 km/h
118 27-09-2010 23:36:10 10.1 C 8.61 g/m*3 10.1 C 0 km/h
119 27-09-2010 23:48:10 10.1 C 8.7 g/m*3 10.1 C 0 km/h
120 28-09-2010 00:00:10 10.1 C 8.7 g/m*3 10.1 C 0 km/h
121 28-09-2010 00:12:10 10 C 8.64 g/m*3 10 C 0 km/h
122 28-09-2010 00:24:10 10 C 8.64 g/m*3 10 C 0 km/h
123 28-09-2010 00:36:10 10 C 8.64 g/m*3 10 C 0 km/h
124 28-09-2010 00:48:10 9.9 C 8.78 g/m*3 9.9 C 0 km/h
125 28-09-2010 01:00:10 10 C 8.74 g/m*3 10 C 0 km/h
Sensor: Nr:Datum:Temp:Abs-Feuchte:Windchill:Wind:
Aussen-T/F 126 28-09-2010 01:12:11 10 C 8.74 g/m*3 10 C 0 km/h
127 28-09-2010 01:24:11 10 C 8.74 g/m*3 10 C 0 km/h
128 28-09-2010 01:36:11 10 C 8.74 g/m*3 10 C 0 km/h
129 28-09-2010 01:48:11 9.9 C 8.78 g/m*3 9.9 C 0 km/h
130 28-09-2010 02:00:11 9.9 C 8.78 g/m*3 9.9 C 0 km/h
131 28-09-2010 02:12:11 9.9 C 8.78 g/m*3 9.9 C 0 km/h
132 28-09-2010 02:24:11 9.9 C 8.78 g/m*3 9.9 C 0 km/h
133 28-09-2010 02:36:11 9.9 C 8.78 g/m*3 9.9 C 0 km/h
134 28-09-2010 02:48:11 9.9 C 8.78 g/m*3 9.9 C 0 km/h
135 28-09-2010 03:00:11 9.9 C 8.87 g/m*3 9.9 C 0 km/h
136 28-09-2010 03:12:11 9.9 C 8.87 g/m*3 9.9 C 0 km/h
137 28-09-2010 03:24:11 9.9 C 8.87 g/m*3 9.9 C 0 km/h
138 28-09-2010 03:36:12 9.9 C 8.87 g/m*3 9.9 C 0 km/h
139 28-09-2010 03:48:12 9.9 C 8.87 g/m*3 9.9 C 0 km/h
140 28-09-2010 04:00:12 9.9 C 8.87 g/m*3 9.9 C 0 km/h
141 28-09-2010 04:12:12 9.9 C 8.87 g/m*3 9.9 C 0 km/h
142 28-09-2010 04:24:12 9.9 C 8.87 g/m*3 9.9 C 0 km/h
143 28-09-2010 04:36:12 9.9 C 8.87 g/m*3 9.9 C 0 km/h
144 28-09-2010 04:48:12 10 C 8.83 g/m*3 10 C 0 km/h
145 28-09-2010 05:00:12 10 C 8.93 g/m*3 10 C 0 km/h
146 28-09-2010 05:12:12 10 C 8.93 g/m*3 10 C 0 km/h
147 28-09-2010 05:24:12 10 C 8.93 g/m*3 10 C 0 km/h
148 28-09-2010 05:36:12 10 C 8.93 g/m*3 10 C 0 km/h
149 28-09-2010 05:48:12 10 C 8.93 g/m*3 10 C 0 km/h
150 28-09-2010 06:00:12 10.1 C 8.98 g/m*3 10.1 C 0 km/h
Sensor: Nr:Datum:Temp:Abs-Feuchte:Windchill:Wind:
Aussen-T/F 151 28-09-2010 06:12:12 10.1 C 8.98 g/m*3 10.1 C 0 km/h
152 28-09-2010 06:24:12 10.1 C 8.98 g/m*3 10.1 C 0 km/h
153 28-09-2010 06:36:12 10.1 C 8.98 g/m*3 10.1 C 0 km/h
154 28-09-2010 06:48:12 10 C 8.93 g/m*3 10 C 0 km/h
155 28-09-2010 07:00:12 10 C 8.93 g/m*3 10 C 0 km/h
156 28-09-2010 07:12:12 10 C 8.93 g/m*3 10 C 0 km/h
157 28-09-2010 07:24:12 10 C 8.93 g/m*3 10 C 0 km/h
158 28-09-2010 07:36:13 10 C 8.93 g/m*3 10 C 0 km/h
159 28-09-2010 07:48:01 10 C 8.93 g/m*3 10 C 0 km/h
160 28-09-2010 08:00:01 10 C 8.93 g/m*3 10 C 0 km/h
161 28-09-2010 08:12:02 10 C 8.93 g/m*3 10 C 0 km/h
162 28-09-2010 08:24:02 10 C 8.93 g/m*3 10 C 0 km/h
163 28-09-2010 08:36:02 10.1 C 8.98 g/m*3 10.1 C 0 km/h
164 28-09-2010 08:48:03 10.1 C 8.98 g/m*3 10.1 C 0 km/h
165 28-09-2010 09:00:03 10.1 C 8.98 g/m*3 10.1 C 0 km/h
166 28-09-2010 09:12:03 10.2 C 9.04 g/m*3 10.2 C 0 km/h
167 28-09-2010 09:24:02 10.2 C 9.04 g/m*3 10.2 C 0 km/h
168 28-09-2010 09:36:02 10.3 C 9.1 g/m*3 10.3 C 0 km/h
169 28-09-2010 09:48:02 10.4 C 9.16 g/m*3 10.4 C 0 km/h
170 28-09-2010 10:00:02 10.4 C 9.16 g/m*3 10.4 C 0 km/h
171 28-09-2010 10:12:02 10.5 C 9.21 g/m*3 10.5 C 0 km/h
172 28-09-2010 10:24:01 10.5 C 9.21 g/m*3 10.5 C 0 km/h
173 28-09-2010 10:36:02 10.7 C 9.33 g/m*3 10.7 C 0 km/h
174 28-09-2010 10:48:02 10.8 C 9.39 g/m*3 10.8 C 0 km/h
175 28-09-2010 11:00:02 11 C 9.51 g/m*3 11 C 0 km/h
Sensor: Nr:Datum:Temp:Abs-Feuchte:Windchill:Wind:
Aussen-T/F 176 28-09-2010 11:12:02 11 C 9.51 g/m*3 11 C 0 km/h
177 28-09-2010 11:24:02 11.2 C 9.63 g/m*3 11.2 C 0 km/h
178 28-09-2010 11:36:02 11.3 C 9.69 g/m*3 11.3 C 0 km/h
179 28-09-2010 11:48:02 11.4 C 9.75 g/m*3 11.4 C 0 km/h
180 28-09-2010 12:00:02 11.4 C 9.75 g/m*3 11.4 C 0 km/h
181 28-09-2010 12:12:02 11.4 C 9.65 g/m*3 11.4 C 0 km/h
182 28-09-2010 12:24:02 11.4 C 9.65 g/m*3 11.4 C 0 km/h
183 28-09-2010 12:36:02 11.5 C 9.71 g/m*3 11.5 C 0 km/h
184 28-09-2010 12:48:02 11.7 C 9.83 g/m*3 11.7 C 0 km/h
185 28-09-2010 13:00:02 11.6 C 9.67 g/m*3 11.6 C 0 km/h
186 28-09-2010 13:12:02 11.6 C 9.67 g/m*3 11.6 C 0 km/h
187 28-09-2010 13:24:03 11.8 C 9.79 g/m*3 11.8 C 0 km/h
188 28-09-2010 13:36:02 11.8 C 9.68 g/m*3 11.8 C 0 km/h
189 28-09-2010 13:48:03 11.9 C 9.74 g/m*3 11.9 C 0 km/h
190 28-09-2010 14:00:03 11.9 C 9.74 g/m*3 11.9 C 0 km/h
191 28-09-2010 14:12:02 11.8 C 9.68 g/m*3 11.8 C 0 km/h
192 28-09-2010 14:24:02 11.7 C 9.62 g/m*3 11.7 C 0 km/h
193 28-09-2010 14:36:02 11.7 C 9.62 g/m*3 11.7 C 0 km/h
194 28-09-2010 14:48:02 11.7 C 9.62 g/m*3 11.7 C 0 km/h
195 28-09-2010 15:00:02 11.7 C 9.62 g/m*3 11.7 C 0 km/h
196 28-09-2010 15:12:02 11.7 C 9.73 g/m*3 11.7 C 0 km/h
197 28-09-2010 15:24:02 11.7 C 9.73 g/m*3 11.7 C 0 km/h
198 28-09-2010 15:36:02 11.8 C 9.79 g/m*3 11.8 C 0 km/h
199 28-09-2010 15:48:02 11.8 C 9.79 g/m*3 11.8 C 0 km/h
200 28-09-2010 16:00:02 11.8 C 9.79 g/m*3 11.8 C 0 km/h
Sensor: Nr:Datum:Temp:Abs-Feuchte:Windchill:Wind:
Aussen-T/F 201 28-09-2010 16:12:01 11.8 C 9.79 g/m*3 11.8 C 0 km/h
202 28-09-2010 16:24:01 11.8 C 9.79 g/m*3 11.8 C 0 km/h
203 28-09-2010 16:36:02 11.9 C 9.96 g/m*3 11.9 C 0 km/h
204 28-09-2010 16:48:02 11.9 C 9.96 g/m*3 11.9 C 0 km/h
205 28-09-2010 17:00:02 11.9 C 9.96 g/m*3 11.9 C 0 km/h
206 28-09-2010 17:12:02 12 C 10.02 g/m*3 12 C 0 km/h
207 28-09-2010 17:24:02 12 C 10.02 g/m*3 12 C 0 km/h
208 28-09-2010 17:36:02 12 C 10.02 g/m*3 12 C 0 km/h
209 28-09-2010 17:48:02 12 C 10.02 g/m*3 12 C 0 km/h
210 28-09-2010 18:00:02 11.9 C 9.96 g/m*3 11.9 C 0 km/h
211 28-09-2010 18:12:02 11.9 C 9.96 g/m*3 11.9 C 0 km/h
212 28-09-2010 18:24:02 11.9 C 10.06 g/m*3 11.9 C 0 km/h
213 28-09-2010 18:36:02 11.8 C 10 g/m*3 11.8 C 0 km/h
214 28-09-2010 18:48:01 11.8 C 10 g/m*3 11.8 C 0 km/h
215 28-09-2010 19:00:01 11.8 C 10 g/m*3 11.8 C 0 km/h
216 28-09-2010 19:12:02 11.7 C 9.94 g/m*3 11.7 C 0 km/h
217 28-09-2010 19:24:01 11.7 C 9.94 g/m*3 11.7 C 0 km/h
218 28-09-2010 19:36:01 11.7 C 9.94 g/m*3 11.7 C 0 km/h
219 28-09-2010 19:48:01 11.7 C 9.94 g/m*3 11.7 C 0 km/h
220 28-09-2010 20:00:01 11.6 C 9.87 g/m*3 11.6 C 0 km/h
221 28-09-2010 20:12:02 11.6 C 9.87 g/m*3 11.6 C 0 km/h
222 28-09-2010 20:24:02 11.6 C 9.87 g/m*3 11.6 C 0 km/h
223 28-09-2010 20:36:01 11.6 C 9.87 g/m*3 11.6 C 0 km/h
224 28-09-2010 20:48:01 11.6 C 9.87 g/m*3 11.6 C 0 km/h
225 28-09-2010 21:00:01 11.6 C 9.87 g/m*3 11.6 C 0 km/h
Sensor: Nr:Datum:Temp:Abs-Feuchte:Windchill:Wind:
Aussen-T/F 226 28-09-2010 21:12:01 11.6 C 9.87 g/m*3 11.6 C 0 km/h
227 28-09-2010 21:24:02 11.6 C 9.87 g/m*3 11.6 C 0 km/h
228 28-09-2010 21:36:01 11.5 C 9.81 g/m*3 11.5 C 0 km/h
229 28-09-2010 21:48:03 11.6 C 9.87 g/m*3 11.6 C 0 km/h
230 28-09-2010 22:00:03 11.6 C 9.87 g/m*3 11.6 C 0 km/h
231 28-09-2010 22:12:02 11.6 C 9.87 g/m*3 11.6 C 0 km/h
232 28-09-2010 22:24:03 11.6 C 9.87 g/m*3 11.6 C 0 km/h
233 28-09-2010 22:36:02 11.7 C 9.94 g/m*3 11.7 C 0 km/h
234 28-09-2010 22:48:03 11.6 C 9.87 g/m*3 11.6 C 0 km/h
235 28-09-2010 23:00:03 11.6 C 9.87 g/m*3 11.6 C 0 km/h
236 28-09-2010 23:12:02 11.6 C 9.87 g/m*3 11.6 C 0 km/h
237 28-09-2010 23:24:02 11.6 C 9.87 g/m*3 11.6 C 0 km/h
238 28-09-2010 23:36:02 11.6 C 9.87 g/m*3 11.6 C 0 km/h
239 28-09-2010 23:48:02 11.6 C 9.87 g/m*3 11.6 C 0 km/h
240 29-09-2010 00:00:02 11.6 C 9.87 g/m*3 11.6 C 0 km/h
241 29-09-2010 00:12:02 11.7 C 9.94 g/m*3 11.7 C 0 km/h
242 29-09-2010 00:24:02 11.6 C 9.87 g/m*3 11.6 C 0 km/h
243 29-09-2010 00:36:02 11.7 C 9.94 g/m*3 11.7 C 0 km/h
244 29-09-2010 00:48:02 11.6 C 9.87 g/m*3 11.6 C 0 km/h
245 29-09-2010 01:00:02 11.7 C 9.94 g/m*3 11.7 C 0 km/h
246 29-09-2010 01:12:03 11.6 C 9.87 g/m*3 11.6 C 0 km/h
247 29-09-2010 01:24:02 11.6 C 9.87 g/m*3 11.6 C 0 km/h
248 29-09-2010 01:36:02 11.6 C 9.87 g/m*3 11.6 C 0 km/h
249 29-09-2010 01:48:01 11.6 C 9.87 g/m*3 11.6 C 0 km/h
250 29-09-2010 02:00:01 11.6 C 9.87 g/m*3 11.6 C 0 km/h
Sensor: Nr:Datum:Temp:Abs-Feuchte:Windchill:Wind:
Aussen-T/F 251 29-09-2010 02:12:02 11.6 C 9.87 g/m*3 11.6 C 0 km/h
252 29-09-2010 02:24:01 11.5 C 9.81 g/m*3 11.5 C 0 km/h
253 29-09-2010 02:36:02 11.5 C 9.81 g/m*3 11.5 C 0 km/h
254 29-09-2010 02:48:01 11.6 C 9.87 g/m*3 11.6 C 0 km/h
255 29-09-2010 03:00:01 11.4 C 9.75 g/m*3 11.4 C 0 km/h
256 29-09-2010 03:12:01 11.3 C 9.69 g/m*3 11.3 C 0 km/h
257 29-09-2010 03:24:02 11.4 C 9.75 g/m*3 11.4 C 0 km/h
258 29-09-2010 03:36:01 11.7 C 9.94 g/m*3 11.7 C 0 km/h
259 29-09-2010 03:48:01 11.6 C 9.87 g/m*3 11.6 C 0 km/h
260 29-09-2010 04:00:01 11.6 C 9.87 g/m*3 11.6 C 0 km/h
261 29-09-2010 04:12:02 11.6 C 9.87 g/m*3 11.6 C 0 km/h
262 29-09-2010 04:24:01 11.6 C 9.87 g/m*3 11.6 C 0 km/h
263 29-09-2010 04:36:01 11.3 C 9.69 g/m*3 11.3 C 0 km/h
264 29-09-2010 04:48:01 11.3 C 9.69 g/m*3 11.3 C 0 km/h
265 29-09-2010 05:00:01 11.4 C 9.75 g/m*3 11.4 C 0 km/h
266 29-09-2010 05:12:02 11.4 C 9.75 g/m*3 11.4 C 0 km/h
267 29-09-2010 05:24:01 11.4 C 9.75 g/m*3 11.4 C 0 km/h
268 29-09-2010 05:36:01 11.4 C 9.75 g/m*3 11.4 C 0 km/h
269 29-09-2010 05:48:01 11.4 C 9.75 g/m*3 11.4 C 0 km/h
270 29-09-2010 06:00:01 11.7 C 9.94 g/m*3 11.7 C 0 km/h
271 29-09-2010 06:12:01 11.6 C 9.87 g/m*3 11.6 C 0 km/h
272 29-09-2010 06:24:02 11.5 C 9.81 g/m*3 11.5 C 0 km/h
273 29-09-2010 06:36:01 11.5 C 9.81 g/m*3 11.5 C 0 km/h
274 29-09-2010 06:48:02 11.3 C 9.69 g/m*3 11.3 C 0 km/h
275 29-09-2010 07:00:02 11.1 C 9.57 g/m*3 11.1 C 0 km/h
Sensor: Nr:Datum:Temp:Abs-Feuchte:Windchill:Wind:
Aussen-T/F 276 29-09-2010 07:12:01 10.8 C 9.39 g/m*3 10.8 C 0 km/h
277 29-09-2010 07:24:02 11 C 9.51 g/m*3 11 C 0 km/h
278 29-09-2010 07:36:01 11.2 C 9.63 g/m*3 11.2 C 0 km/h
279 29-09-2010 07:48:02 11.1 C 9.57 g/m*3 11.1 C 0 km/h
280 29-09-2010 08:00:02 11 C 9.51 g/m*3 11 C 0 km/h
281 29-09-2010 08:12:01 11.2 C 9.63 g/m*3 11.2 C 0 km/h
282 29-09-2010 08:24:01 11.2 C 9.63 g/m*3 11.2 C 0 km/h
283 29-09-2010 08:36:01 11.1 C 9.57 g/m*3 11.1 C 0 km/h
284 29-09-2010 08:48:02 11.4 C 9.75 g/m*3 11.4 C 0 km/h
285 29-09-2010 09:00:02 11.6 C 9.87 g/m*3 11.6 C 0 km/h
286 29-09-2010 09:12:01 11.2 C 9.53 g/m*3 11.2 C 0 km/h
287 29-09-2010 09:24:01 10.8 C 9.19 g/m*3 10.8 C 0 km/h
288 29-09-2010 09:36:02 11.7 C 9.62 g/m*3 11.7 C 0 km/h
289 29-09-2010 09:48:01 11.9 C 9.64 g/m*3 11.9 C 0 km/h
290 29-09-2010 10:00:01 12.1 C 9.22 g/m*3 12.1 C 0 km/h
291 29-09-2010 10:12:02 12.5 C 8.91 g/m*3 12.5 C 0 km/h
292 29-09-2010 10:24:01 12.9 C 8.79 g/m*3 12.9 C 0 km/h
293 29-09-2010 10:36:02 13.4 C 8.95 g/m*3 13.4 C 0 km/h
294 29-09-2010 10:48:01 13.7 C 9 g/m*3 13.7 C 0 km/h
295 29-09-2010 11:00:01 13.8 C 8.94 g/m*3 13.8 C 0 km/h
296 29-09-2010 11:12:02 13.7 C 8.53 g/m*3 13.7 C 0 km/h
297 29-09-2010 11:24:01 13.8 C 8.46 g/m*3 13.8 C 0 km/h
298 29-09-2010 11:36:01 14.1 C 8.01 g/m*3 14.1 C 0 km/h
299 29-09-2010 11:48:01 14.4 C 8.16 g/m*3 14.4 C 0 km/h
300 29-09-2010 12:00:01 14.5 C 8.21 g/m*3 14.5 C 0 km/h
Sensor: Nr:Datum:Temp:Abs-Feuchte:Windchill:Wind:
Aussen-T/F 301 29-09-2010 12:12:01 14.6 C 8.01 g/m*3 14.6 C 0 km/h
302 29-09-2010 12:24:01 14.1 C 7.52 g/m*3 14.1 C 0 km/h
303 29-09-2010 12:36:01 14 C 8.08 g/m*3 14 C 0 km/h
304 29-09-2010 12:48:01 14.8 C 8.36 g/m*3 14.8 C 0 km/h
305 29-09-2010 13:00:01 15.4 C 8.15 g/m*3 15.4 C 0 km/h
306 29-09-2010 13:12:01 15.7 C 7.89 g/m*3 15.7 C 0 km/h
307 29-09-2010 13:24:02 15.8 C 7.81 g/m*3 15.8 C 0 km/h
308 29-09-2010 13:36:01 15.9 C 7.99 g/m*3 15.9 C 0 km/h
309 29-09-2010 13:48:02 15.9 C 7.58 g/m*3 15.9 C 0 km/h
310 29-09-2010 14:00:02 16.3 C 7.35 g/m*3 16.3 C 0 km/h
311 29-09-2010 14:12:01 15.6 C 7.58 g/m*3 15.6 C 0 km/h
312 29-09-2010 14:24:02 15.8 C 7.94 g/m*3 15.8 C 0 km/h
313 29-09-2010 14:36:01 17.4 C 7.85 g/m*3 17.4 C 0 km/h
314 29-09-2010 14:48:02 19 C 7.33 g/m*3 19 C 0 km/h
315 29-09-2010 15:00:02 18.8 C 6.76 g/m*3 18.8 C 0 km/h
316 29-09-2010 15:12:01 18.8 C 6.93 g/m*3 18.8 C 0 km/h
317 29-09-2010 15:24:01 18.9 C 6.97 g/m*3 18.9 C 0 km/h
318 29-09-2010 15:36:02 19.6 C 6.92 g/m*3 19.6 C 0 km/h
319 29-09-2010 15:48:01 19.7 C 6.79 g/m*3 19.7 C 0 km/h
320 29-09-2010 16:00:02 18.8 C 7.41 g/m*3 18.8 C 0 km/h
321 29-09-2010 16:12:01 18.1 C 7.26 g/m*3 18.1 C 0 km/h
322 29-09-2010 16:24:01 18.1 C 7.57 g/m*3 18.1 C 0 km/h
323 29-09-2010 16:36:02 17.6 C 7.95 g/m*3 17.6 C 0 km/h
324 29-09-2010 16:48:01 18.1 C 7.88 g/m*3 18.1 C 0 km/h
325 29-09-2010 17:00:02 19 C 7.33 g/m*3 19 C 0 km/h
Sensor: Nr:Datum:Temp:Abs-Feuchte:Windchill:Wind:
Aussen-T/F 326 29-09-2010 17:12:01 19.4 C 7.01 g/m*3 19.4 C 0 km/h
327 29-09-2010 17:24:01 18.6 C 7.16 g/m*3 18.6 C 0 km/h
328 29-09-2010 17:36:02 17.6 C 7.95 g/m*3 17.6 C 0 km/h
329 29-09-2010 17:48:01 16.9 C 8.05 g/m*3 16.9 C 0 km/h
330 29-09-2010 18:00:01 15.9 C 7.58 g/m*3 15.9 C 0 km/h
331 29-09-2010 18:12:04 15.2 C 7.92 g/m*3 15.2 C 0 km/h
332 29-09-2010 18:24:02 14.4 C 7.91 g/m*3 14.4 C 0 km/h
333 29-09-2010 18:36:02 14 C 7.84 g/m*3 14 C 0 km/h
334 29-09-2010 18:48:01 13.6 C 7.89 g/m*3 13.6 C 0 km/h
335 29-09-2010 19:00:01 13.2 C 7.81 g/m*3 13.2 C 0 km/h
336 29-09-2010 19:12:01 13.1 C 7.76 g/m*3 13.1 C 0 km/h
337 29-09-2010 19:24:01 13 C 7.71 g/m*3 13 C 0 km/h
338 29-09-2010 19:36:02 13 C 7.6 g/m*3 13 C 0 km/h
339 29-09-2010 19:48:01 13.1 C 7.53 g/m*3 13.1 C 0 km/h
340 29-09-2010 20:00:01 13.3 C 7.63 g/m*3 13.3 C 0 km/h
341 29-09-2010 20:12:02 13.2 C 7.81 g/m*3 13.2 C 0 km/h
342 29-09-2010 20:24:01 13.2 C 7.81 g/m*3 13.2 C 0 km/h
343 29-09-2010 20:36:02 13 C 7.6 g/m*3 13 C 0 km/h
344 29-09-2010 20:48:01 12.9 C 7.66 g/m*3 12.9 C 0 km/h
345 29-09-2010 21:00:01 12.9 C 7.66 g/m*3 12.9 C 0 km/h
346 29-09-2010 21:12:02 12.8 C 7.84 g/m*3 12.8 C 0 km/h
347 29-09-2010 21:24:01 12.4 C 7.98 g/m*3 12.4 C 0 km/h
348 29-09-2010 21:38:05 12.2 C 8.09 g/m*3 12.2 C 0 km/h
349 29-09-2010 21:50:05 12.2 C 8.09 g/m*3 12.2 C 0 km/h
350 29-09-2010 22:02:05 12.3 C 8.25 g/m*3 12.3 C 0 km/h
Sensor: Nr:Datum:Temp:Abs-Feuchte:Windchill:Wind:
Aussen-T/F 351 29-09-2010 22:14:05 12.4 C 8.3 g/m*3 12.4 C 0 km/h
352 29-09-2010 22:26:05 12.4 C 8.41 g/m*3 12.4 C 0 km/h
353 29-09-2010 22:38:06 12.5 C 8.47 g/m*3 12.5 C 0 km/h
354 29-09-2010 22:50:06 12.3 C 8.36 g/m*3 12.3 C 0 km/h
355 29-09-2010 23:02:06 12 C 8.21 g/m*3 12 C 0 km/h
356 29-09-2010 23:14:06 11.8 C 8.31 g/m*3 11.8 C 0 km/h
357 29-09-2010 23:26:06 11.8 C 8.42 g/m*3 11.8 C 0 km/h
358 29-09-2010 23:38:06 12 C 8.31 g/m*3 12 C 0 km/h
359 29-09-2010 23:50:06 12.2 C 8.42 g/m*3 12.2 C 0 km/h
360 30-09-2010 00:02:06 12.4 C 8.52 g/m*3 12.4 C 0 km/h
361 30-09-2010 00:14:06 12.3 C 8.47 g/m*3 12.3 C 0 km/h
362 30-09-2010 00:26:06 12.1 C 8.36 g/m*3 12.1 C 0 km/h
363 30-09-2010 00:38:06 12.1 C 8.47 g/m*3 12.1 C 0 km/h
364 30-09-2010 00:50:06 11.9 C 8.37 g/m*3 11.9 C 0 km/h
365 30-09-2010 01:02:06 11.7 C 8.37 g/m*3 11.7 C 0 km/h
366 30-09-2010 01:14:06 11.8 C 7.89 g/m*3 11.8 C 0 km/h
367 30-09-2010 01:26:06 11.8 C 7.79 g/m*3 11.8 C 0 km/h
368 30-09-2010 01:38:06 12 C 7.46 g/m*3 12 C 0 km/h
369 30-09-2010 01:50:06 12 C 7.25 g/m*3 12 C 0 km/h
370 30-09-2010 02:02:06 12.1 C 7.4 g/m*3 12.1 C 0 km/h
371 30-09-2010 02:14:06 11.5 C 7.54 g/m*3 11.5 C 0 km/h
372 30-09-2010 02:26:06 11.4 C 7.7 g/m*3 11.4 C 0 km/h
373 30-09-2010 02:38:06 11.1 C 7.66 g/m*3 11.1 C 0 km/h
374 30-09-2010 02:50:07 11.2 C 7.8 g/m*3 11.2 C 0 km/h
375 30-09-2010 03:02:07 11.3 C 7.85 g/m*3 11.3 C 0 km/h
Sensor: Nr:Datum:Temp:Abs-Feuchte:Windchill:Wind:
Aussen-T/F 376 30-09-2010 03:14:07 11.2 C 7.91 g/m*3 11.2 C 0 km/h
377 30-09-2010 03:26:07 11 C 7.81 g/m*3 11 C 0 km/h
378 30-09-2010 03:38:07 11.1 C 7.86 g/m*3 11.1 C 0 km/h
379 30-09-2010 03:50:07 11.2 C 7.91 g/m*3 11.2 C 0 km/h
380 30-09-2010 04:02:07 11.3 C 7.96 g/m*3 11.3 C 0 km/h
381 30-09-2010 04:14:07 11.2 C 7.91 g/m*3 11.2 C 0 km/h
382 30-09-2010 04:26:07 11 C 7.81 g/m*3 11 C 0 km/h
383 30-09-2010 04:38:07 10.8 C 7.81 g/m*3 10.8 C 0 km/h
384 30-09-2010 04:50:07 10.8 C 7.91 g/m*3 10.8 C 0 km/h
385 30-09-2010 05:02:07 10.8 C 7.91 g/m*3 10.8 C 0 km/h
386 30-09-2010 05:14:07 10.8 C 7.91 g/m*3 10.8 C 0 km/h
387 30-09-2010 05:26:07 10.8 C 7.81 g/m*3 10.8 C 0 km/h
388 30-09-2010 05:38:07 10.7 C 7.76 g/m*3 10.7 C 0 km/h
389 30-09-2010 05:50:07 10.7 C 7.56 g/m*3 10.7 C 0 km/h
390 30-09-2010 06:02:07 10.8 C 7.31 g/m*3 10.8 C 0 km/h
391 30-09-2010 06:14:07 10.8 C 7.31 g/m*3 10.8 C 0 km/h
392 30-09-2010 06:26:07 10.7 C 7.27 g/m*3 10.7 C 0 km/h
393 30-09-2010 06:38:05 10.6 C 7.32 g/m*3 10.6 C 0 km/h
394 30-09-2010 06:50:02 10.6 C 7.42 g/m*3 10.6 C 0 km/h
395 30-09-2010 07:02:02 10.7 C 7.56 g/m*3 10.7 C 0 km/h
396 30-09-2010 07:14:02 10.7 C 7.66 g/m*3 10.7 C 0 km/h
397 30-09-2010 07:26:02 10.6 C 7.61 g/m*3 10.6 C 0 km/h
398 30-09-2010 07:38:02 10.6 C 7.71 g/m*3 10.6 C 0 km/h
399 30-09-2010 07:50:01 10.7 C 7.76 g/m*3 10.7 C 0 km/h
400 30-09-2010 08:02:01 10.7 C 7.66 g/m*3 10.7 C 0 km/h
Sensor: Nr:Datum:Temp:Abs-Feuchte:Windchill:Wind:
Aussen-T/F 401 30-09-2010 08:14:02 10.9 C 7.76 g/m*3 10.9 C 0 km/h
402 30-09-2010 08:26:01 10.9 C 7.76 g/m*3 10.9 C 0 km/h
403 30-09-2010 08:38:01 11 C 7.81 g/m*3 11 C 0 km/h
404 30-09-2010 08:50:01 11 C 7.81 g/m*3 11 C 0 km/h
405 30-09-2010 09:02:01 11.2 C 7.91 g/m*3 11.2 C 0 km/h
406 30-09-2010 09:14:01 11.4 C 8.01 g/m*3 11.4 C 0 km/h
407 30-09-2010 09:26:01 11.4 C 7.8 g/m*3 11.4 C 0 km/h
408 30-09-2010 09:38:01 11.5 C 7.75 g/m*3 11.5 C 0 km/h
409 30-09-2010 09:50:02 11.5 C 7.85 g/m*3 11.5 C 0 km/h
410 30-09-2010 10:02:02 11.4 C 8.01 g/m*3 11.4 C 0 km/h
411 30-09-2010 10:14:02 11.4 C 8.11 g/m*3 11.4 C 0 km/h
412 30-09-2010 10:26:03 11.7 C 8.37 g/m*3 11.7 C 0 km/h
413 30-09-2010 10:38:02 11.8 C 8.42 g/m*3 11.8 C 0 km/h
414 30-09-2010 10:50:02 11.9 C 8.47 g/m*3 11.9 C 0 km/h
415 30-09-2010 11:02:02 12 C 8.42 g/m*3 12 C 0 km/h
416 30-09-2010 11:14:02 12 C 8.42 g/m*3 12 C 0 km/h
417 30-09-2010 11:26:02 11.8 C 8.42 g/m*3 11.8 C 0 km/h
418 30-09-2010 11:38:01 11.7 C 8.47 g/m*3 11.7 C 0 km/h
419 30-09-2010 11:50:02 11.8 C 8.63 g/m*3 11.8 C 0 km/h
420 30-09-2010 12:02:01 11.9 C 8.79 g/m*3 11.9 C 0 km/h
421 30-09-2010 12:14:01 11.9 C 8.9 g/m*3 11.9 C 0 km/h
422 30-09-2010 12:26:02 12 C 8.95 g/m*3 12 C 0 km/h
423 30-09-2010 12:38:02 12.1 C 9.01 g/m*3 12.1 C 0 km/h
424 30-09-2010 12:50:02 12 C 9.06 g/m*3 12 C 0 km/h
425 30-09-2010 13:02:02 12.4 C 9.4 g/m*3 12.4 C 0 km/h
Sensor: Nr:Datum:Temp:Abs-Feuchte:Windchill:Wind:
Aussen-T/F 426 30-09-2010 13:14:02 12.6 C 9.51 g/m*3 12.6 C 0 km/h
427 30-09-2010 13:26:02 12.6 C 9.51 g/m*3 12.6 C 0 km/h
428 30-09-2010 13:38:02 12.6 C 9.62 g/m*3 12.6 C 0 km/h
429 30-09-2010 13:50:01 12.7 C 9.68 g/m*3 12.7 C 0 km/h
430 30-09-2010 14:02:02 12.9 C 9.81 g/m*3 12.9 C 0 km/h
431 30-09-2010 14:14:02 13 C 9.87 g/m*3 13 C 0 km/h
432 30-09-2010 14:26:01 12.8 C 9.86 g/m*3 12.8 C 0 km/h
433 30-09-2010 14:38:01 12.9 C 9.92 g/m*3 12.9 C 0 km/h
434 30-09-2010 14:50:01 13.1 C 10.04 g/m*3 13.1 C 0 km/h
435 30-09-2010 15:02:02 13.2 C 10.1 g/m*3 13.2 C 0 km/h
436 30-09-2010 15:14:03 13.2 C 10.1 g/m*3 13.2 C 0 km/h
437 30-09-2010 15:26:01 13.4 C 10.23 g/m*3 13.4 C 0 km/h
438 30-09-2010 15:38:01 13.3 C 10.17 g/m*3 13.3 C 0 km/h
439 30-09-2010 15:50:01 13.2 C 9.99 g/m*3 13.2 C 0 km/h
440 30-09-2010 16:02:01 13.5 C 10.29 g/m*3 13.5 C 0 km/h
441 30-09-2010 16:14:01 13.5 C 10.29 g/m*3 13.5 C 0 km/h
442 30-09-2010 16:26:02 13.6 C 10.24 g/m*3 13.6 C 0 km/h
443 30-09-2010 16:38:01 13.3 C 10.05 g/m*3 13.3 C 0 km/h
444 30-09-2010 16:50:03 13.1 C 9.93 g/m*3 13.1 C 0 km/h
445 30-09-2010 17:02:02 13.1 C 9.93 g/m*3 13.1 C 0 km/h
446 30-09-2010 17:14:02 13 C 9.98 g/m*3 13 C 0 km/h
447 30-09-2010 17:26:02 13 C 9.98 g/m*3 13 C 0 km/h
448 30-09-2010 17:38:02 12.9 C 10.03 g/m*3 12.9 C 0 km/h
449 30-09-2010 17:50:02 12.8 C 9.97 g/m*3 12.8 C 0 km/h
450 30-09-2010 18:02:02 12.7 C 9.91 g/m*3 12.7 C 0 km/h
Sensor: Nr:Datum:Temp:Abs-Feuchte:Windchill:Wind:
Aussen-T/F 451 30-09-2010 18:14:02 12.5 C 9.78 g/m*3 12.5 C 0 km/h
452 30-09-2010 18:26:02 12.5 C 9.78 g/m*3 12.5 C 0 km/h
453 30-09-2010 18:38:02 12.4 C 9.83 g/m*3 12.4 C 0 km/h
454 30-09-2010 18:50:01 12.3 C 9.77 g/m*3 12.3 C 0 km/h
455 30-09-2010 19:02:02 12.2 C 9.71 g/m*3 12.2 C 0 km/h
456 30-09-2010 19:14:02 12.1 C 9.76 g/m*3 12.1 C 0 km/h
457 30-09-2010 19:26:02 12.1 C 9.76 g/m*3 12.1 C 0 km/h
458 30-09-2010 19:38:02 12.2 C 9.82 g/m*3 12.2 C 0 km/h
459 30-09-2010 19:50:02 12.1 C 9.87 g/m*3 12.1 C 0 km/h
460 30-09-2010 20:02:02 12.2 C 9.93 g/m*3 12.2 C 0 km/h
461 30-09-2010 20:14:02 12.2 C 9.93 g/m*3 12.2 C 0 km/h
462 30-09-2010 20:26:02 12.1 C 9.87 g/m*3 12.1 C 0 km/h
463 30-09-2010 20:38:01 12.1 C 9.87 g/m*3 12.1 C 0 km/h
464 30-09-2010 20:50:02 12.2 C 10.04 g/m*3 12.2 C 0 km/h
465 30-09-2010 21:02:01 12.1 C 9.97 g/m*3 12.1 C 0 km/h
466 30-09-2010 21:14:01 12.1 C 9.97 g/m*3 12.1 C 0 km/h
467 30-09-2010 21:26:02 12.1 C 9.97 g/m*3 12.1 C 0 km/h
468 30-09-2010 21:38:01 12.1 C 9.97 g/m*3 12.1 C 0 km/h
469 30-09-2010 21:50:02 12 C 9.91 g/m*3 12 C 0 km/h
470 30-09-2010 22:02:02 12 C 9.91 g/m*3 12 C 0 km/h
471 30-09-2010 22:14:02 12 C 9.91 g/m*3 12 C 0 km/h
472 30-09-2010 22:26:02 11.9 C 9.96 g/m*3 11.9 C 0 km/h
473 30-09-2010 22:38:02 11.9 C 9.96 g/m*3 11.9 C 0 km/h
474 30-09-2010 22:50:01 12 C 9.91 g/m*3 12 C 0 km/h
475 30-09-2010 23:03:03 12 C 9.91 g/m*3 12 C 0 km/h
Sensor: Nr:Datum:Temp:Abs-Feuchte:Windchill:Wind:
Aussen-T/F 476 30-09-2010 23:15:03 11.9 C 9.96 g/m*3 11.9 C 0 km/h
477 30-09-2010 23:27:03 12 C 10.02 g/m*3 12 C 0 km/h
478 30-09-2010 23:39:03 12.1 C 10.08 g/m*3 12.1 C 0 km/h
479 30-09-2010 23:51:03 12 C 10.02 g/m*3 12 C 0 km/h
480 01-10-2010 00:03:03 12.1 C 10.08 g/m*3 12.1 C 0 km/h
481 01-10-2010 00:15:03 12 C 10.02 g/m*3 12 C 0 km/h
482 01-10-2010 00:27:03 12.1 C 10.08 g/m*3 12.1 C 0 km/h
483 01-10-2010 00:39:03 12.1 C 10.08 g/m*3 12.1 C 0 km/h
484 01-10-2010 00:51:03 11.8 C 10 g/m*3 11.8 C 0 km/h
485 01-10-2010 01:03:03 11.6 C 9.87 g/m*3 11.6 C 0 km/h
486 01-10-2010 01:15:04 11.7 C 9.94 g/m*3 11.7 C 0 km/h
487 01-10-2010 01:27:04 11.6 C 9.87 g/m*3 11.6 C 0 km/h
488 01-10-2010 01:39:04 11.5 C 9.81 g/m*3 11.5 C 0 km/h
489 01-10-2010 01:51:04 11.5 C 9.81 g/m*3 11.5 C 0 km/h
490 01-10-2010 02:03:04 11.5 C 9.81 g/m*3 11.5 C 0 km/h
491 01-10-2010 02:15:04 11.4 C 9.75 g/m*3 11.4 C 0 km/h
492 01-10-2010 02:27:04 11.4 C 9.75 g/m*3 11.4 C 0 km/h
493 01-10-2010 02:39:04 11.4 C 9.75 g/m*3 11.4 C 0 km/h
494 01-10-2010 02:51:04 11.5 C 9.81 g/m*3 11.5 C 0 km/h
495 01-10-2010 03:03:04 11.5 C 9.81 g/m*3 11.5 C 0 km/h
496 01-10-2010 03:15:04 11.5 C 9.81 g/m*3 11.5 C 0 km/h
497 01-10-2010 03:27:04 11.5 C 9.81 g/m*3 11.5 C 0 km/h
498 01-10-2010 03:39:04 11.5 C 9.81 g/m*3 11.5 C 0 km/h
499 01-10-2010 03:51:04 11.8 C 10 g/m*3 11.8 C 0 km/h
500 01-10-2010 04:03:04 11.7 C 9.94 g/m*3 11.7 C 0 km/h
Sensor: Nr:Datum:Temp:Abs-Feuchte:Windchill:Wind:
Aussen-T/F 501 01-10-2010 04:15:04 11.7 C 9.94 g/m*3 11.7 C 0 km/h
502 01-10-2010 04:27:04 11.7 C 9.94 g/m*3 11.7 C 0 km/h
503 01-10-2010 04:39:04 11.7 C 9.94 g/m*3 11.7 C 0 km/h
504 01-10-2010 04:51:04 11.7 C 9.94 g/m*3 11.7 C 0 km/h
505 01-10-2010 05:03:04 11.7 C 9.94 g/m*3 11.7 C 0 km/h
506 01-10-2010 05:15:04 11.7 C 9.94 g/m*3 11.7 C 0 km/h
507 01-10-2010 05:27:04 11.7 C 9.94 g/m*3 11.7 C 0 km/h
508 01-10-2010 05:39:04 11.5 C 9.81 g/m*3 11.5 C 0 km/h
509 01-10-2010 05:51:05 11.5 C 9.81 g/m*3 11.5 C 0 km/h
510 01-10-2010 06:03:05 11.4 C 9.75 g/m*3 11.4 C 0 km/h
511 01-10-2010 06:15:05 11.4 C 9.75 g/m*3 11.4 C 0 km/h
512 01-10-2010 06:27:05 11.4 C 9.75 g/m*3 11.4 C 0 km/h
513 01-10-2010 06:39:05 11.4 C 9.75 g/m*3 11.4 C 0 km/h
514 01-10-2010 06:51:05 11.4 C 9.75 g/m*3 11.4 C 0 km/h
515 01-10-2010 07:03:05 11.3 C 9.69 g/m*3 11.3 C 0 km/h
516 01-10-2010 07:15:02 11.3 C 9.69 g/m*3 11.3 C 0 km/h
517 01-10-2010 07:27:02 11 C 9.51 g/m*3 11 C 0 km/h
518 01-10-2010 07:39:02 10.8 C 9.39 g/m*3 10.8 C 0 km/h
519 01-10-2010 07:51:02 10.6 C 9.27 g/m*3 10.6 C 0 km/h
520 01-10-2010 08:03:02 10.4 C 9.16 g/m*3 10.4 C 0 km/h
521 01-10-2010 08:15:02 10.3 C 9.1 g/m*3 10.3 C 0 km/h
522 01-10-2010 08:27:02 10.2 C 9.04 g/m*3 10.2 C 0 km/h
523 01-10-2010 08:39:02 10.2 C 9.04 g/m*3 10.2 C 0 km/h
524 01-10-2010 08:51:02 10.4 C 9.16 g/m*3 10.4 C 0 km/h
525 01-10-2010 09:03:02 10.7 C 9.33 g/m*3 10.7 C 0 km/h
Sensor: Nr:Datum:Temp:Abs-Feuchte:Windchill:Wind:
Aussen-T/F 526 01-10-2010 09:15:01 11.1 C 9.57 g/m*3 11.1 C 0 km/h
527 01-10-2010 09:27:01 11.3 C 9.69 g/m*3 11.3 C 0 km/h
528 01-10-2010 09:39:02 11.4 C 9.75 g/m*3 11.4 C 0 km/h
529 01-10-2010 09:51:02 11.7 C 9.94 g/m*3 11.7 C 0 km/h
530 01-10-2010 10:03:02 11.7 C 9.94 g/m*3 11.7 C 0 km/h
531 01-10-2010 10:15:02 11.7 C 9.83 g/m*3 11.7 C 0 km/h
532 01-10-2010 10:27:02 11.6 C 9.56 g/m*3 11.6 C 0 km/h
533 01-10-2010 10:39:02 11.7 C 9.52 g/m*3 11.7 C 0 km/h
534 01-10-2010 10:51:02 11.9 C 9.32 g/m*3 11.9 C 0 km/h
535 01-10-2010 11:03:02 12.1 C 9.12 g/m*3 12.1 C 0 km/h
536 01-10-2010 11:15:02 12.2 C 8.85 g/m*3 12.2 C 0 km/h
537 01-10-2010 11:27:02 12.5 C 8.91 g/m*3 12.5 C 0 km/h
538 01-10-2010 11:39:02 12.5 C 8.69 g/m*3 12.5 C 0 km/h
539 01-10-2010 11:51:02 13 C 8.62 g/m*3 13 C 0 km/h
540 01-10-2010 12:03:02 12.8 C 8.51 g/m*3 12.8 C 0 km/h
541 01-10-2010 12:15:02 12.8 C 8.62 g/m*3 12.8 C 0 km/h
542 01-10-2010 12:27:02 12.7 C 8.46 g/m*3 12.7 C 0 km/h
543 01-10-2010 12:39:02 12.4 C 8.41 g/m*3 12.4 C 0 km/h
544 01-10-2010 12:51:02 12.7 C 8.46 g/m*3 12.7 C 0 km/h
545 01-10-2010 13:03:01 12.8 C 8.4 g/m*3 12.8 C 0 km/h
546 01-10-2010 13:15:02 13.3 C 8.32 g/m*3 13.3 C 0 km/h
547 01-10-2010 13:27:02 13.4 C 8.14 g/m*3 13.4 C 0 km/h
548 01-10-2010 13:39:01 13.1 C 7.76 g/m*3 13.1 C 0 km/h
549 01-10-2010 13:51:02 13.3 C 7.97 g/m*3 13.3 C 0 km/h
550 01-10-2010 14:03:01 13.1 C 7.87 g/m*3 13.1 C 0 km/h
Sensor: Nr:Datum:Temp:Abs-Feuchte:Windchill:Wind:
Aussen-T/F 551 01-10-2010 14:15:01 13.2 C 8.04 g/m*3 13.2 C 0 km/h
552 01-10-2010 14:27:01 13.3 C 7.86 g/m*3 13.3 C 0 km/h
553 01-10-2010 14:39:02 13.2 C 7.92 g/m*3 13.2 C 0 km/h
554 01-10-2010 14:51:02 13.8 C 7.98 g/m*3 13.8 C 0 km/h
555 01-10-2010 15:03:02 14.4 C 7.91 g/m*3 14.4 C 0 km/h
556 01-10-2010 15:15:02 15.2 C 7.92 g/m*3 15.2 C 0 km/h
557 01-10-2010 15:27:02 15.3 C 7.7 g/m*3 15.3 C 0 km/h
558 01-10-2010 15:39:02 15.7 C 7.76 g/m*3 15.7 C 0 km/h
559 01-10-2010 15:51:02 15.9 C 7.58 g/m*3 15.9 C 0 km/h
560 01-10-2010 16:03:02 16 C 7.49 g/m*3 16 C 0 km/h
561 01-10-2010 16:15:02 16.2 C 7.17 g/m*3 16.2 C 0 km/h
562 01-10-2010 16:27:02 17.1 C 7.42 g/m*3 17.1 C 0 km/h
563 01-10-2010 16:39:02 17.2 C 7.91 g/m*3 17.2 C 0 km/h
564 01-10-2010 16:51:02 17.2 C 8.05 g/m*3 17.2 C 0 km/h
565 01-10-2010 17:03:02 17.5 C 7.9 g/m*3 17.5 C 0 km/h
566 01-10-2010 17:15:02 16.6 C 8.19 g/m*3 16.6 C 0 km/h
567 01-10-2010 17:27:02 16 C 8.31 g/m*3 16 C 0 km/h
568 01-10-2010 17:39:02 15.4 C 8.54 g/m*3 15.4 C 0 km/h
569 01-10-2010 17:51:02 15.2 C 8.7 g/m*3 15.2 C 0 km/h
570 01-10-2010 18:03:02 14.8 C 8.74 g/m*3 14.8 C 0 km/h
571 01-10-2010 18:15:02 14.7 C 8.94 g/m*3 14.7 C 0 km/h
572 01-10-2010 18:27:02 14.5 C 8.83 g/m*3 14.5 C 0 km/h
573 01-10-2010 18:39:01 14.1 C 8.74 g/m*3 14.1 C 0 km/h
574 01-10-2010 18:51:02 13.6 C 8.71 g/m*3 13.6 C 0 km/h
575 01-10-2010 19:03:01 12.8 C 8.62 g/m*3 12.8 C 0 km/h
Sensor: Nr:Datum:Temp:Abs-Feuchte:Windchill:Wind:
Aussen-T/F 576 01-10-2010 19:15:02 12.5 C 8.58 g/m*3 12.5 C 0 km/h
577 01-10-2010 19:27:02 12.2 C 8.52 g/m*3 12.2 C 0 km/h
578 01-10-2010 19:39:02 11.8 C 8.53 g/m*3 11.8 C 0 km/h
579 01-10-2010 19:51:02 11.6 C 8.52 g/m*3 11.6 C 0 km/h
580 01-10-2010 20:03:02 11.4 C 8.42 g/m*3 11.4 C 0 km/h
581 01-10-2010 20:15:02 11.3 C 8.47 g/m*3 11.3 C 0 km/h
582 01-10-2010 20:27:02 11.2 C 8.51 g/m*3 11.2 C 0 km/h
583 01-10-2010 20:39:02 11.2 C 8.51 g/m*3 11.2 C 0 km/h
584 01-10-2010 20:51:01 11.2 C 8.62 g/m*3 11.2 C 0 km/h
585 01-10-2010 21:03:02 11.1 C 8.56 g/m*3 11.1 C 0 km/h
586 01-10-2010 21:15:01 11 C 8.51 g/m*3 11 C 0 km/h
587 01-10-2010 21:27:01 10.8 C 8.5 g/m*3 10.8 C 0 km/h
588 01-10-2010 21:39:01 10.7 C 8.55 g/m*3 10.7 C 0 km/h
589 01-10-2010 21:51:01 10.7 C 8.55 g/m*3 10.7 C 0 km/h
590 01-10-2010 22:03:02 10.8 C 8.7 g/m*3 10.8 C 0 km/h
591 01-10-2010 22:15:02 10.9 C 8.75 g/m*3 10.9 C 0 km/h
592 01-10-2010 22:27:02 11 C 8.81 g/m*3 11 C 0 km/h
593 01-10-2010 22:39:01 11.1 C 8.76 g/m*3 11.1 C 0 km/h
594 01-10-2010 22:52:04 11.1 C 8.76 g/m*3 11.1 C 0 km/h
595 01-10-2010 23:04:04 11.1 C 8.76 g/m*3 11.1 C 0 km/h
596 01-10-2010 23:16:04 11.1 C 8.76 g/m*3 11.1 C 0 km/h
597 01-10-2010 23:28:04 11 C 8.71 g/m*3 11 C 0 km/h
598 01-10-2010 23:40:04 11 C 8.71 g/m*3 11 C 0 km/h
599 01-10-2010 23:52:04 11.1 C 8.76 g/m*3 11.1 C 0 km/h

Legende:
   Min
   Max


Maximal/Minimal-Werte vom 27.09.2010 - 01.10.2010

Sensor Min Max Avg
Temp
(Aussen-T/F)
5.9 °C
27-09-2010  04:59:05
19.7 °C
29-09-2010  15:48:01
11.69 °C
Abs-Feuchte
(Aussen-T/F)
6.47 g/m*3
27-09-2010  15:35:02
10.29 g/m*3
30-09-2010  16:02:01
8.65 g/m*3
Windchill
(Aussen-T/F)
5.9 C
27-09-2010  04:59:05
19.7 C
29-09-2010  15:48:01
11.67 C

Die Daten stammen von einer Davis Vantage Pro 2 Wetter-Station und werden unter Linux mit der Software wview2wettercgi und aufbereitet. Alle Angaben erfolgen ohne Gewähr für ihre Vollständigkeit oder Richtigkeit.
Kontakt: Rainer Krienke krienke@uni-koblenz.de . Meine Webseiten an der Uni Koblenz oder privat.
Version: $Revision: 0.78 $